Time;durP1;ratioP1;P1;durP2;ratioP2;P2;SDS_P1;SDS_P2;PMS_P1;PMS_P2;Temp;Humidity;BMP_temperature;BMP_pressure;BME280_temperature;BME280_humidity;BME280_pressure;Samples;Min_cycle;Max_cycle;Signal;HPM_P1;HPM_P2
2022/05/16 00:01:43;;;;;;;;;;;;;;;27.48;33.55;101021.88;5075986;28;1965;-43
2022/05/16 00:04:08;;;;;;;;;;;;;;;27.48;33.56;101032.69;5076439;28;789;-43
2022/05/16 00:06:34;;;;;;;;;;;;;;;27.47;33.20;101029.16;5075993;28;913;-44
2022/05/16 00:08:59;;;;;;;;;;;;;;;27.51;33.51;101030.47;5075837;28;874;-43
2022/05/16 00:11:24;;;;;;;;;;;;;;;27.53;33.38;101022.19;5076320;28;799;-43
2022/05/16 00:13:49;;;;;;;;;;;;;;;27.51;33.46;101029.63;5057896;28;849;-43
2022/05/16 00:16:15;;;;;;;;;;;;;;;27.51;33.55;101025.06;5075695;28;994;-43
2022/05/16 00:18:40;;;;;;;;;;;;;;;27.49;33.49;101027.09;5076305;28;917;-44
2022/05/16 00:21:05;;;;;;;;;;;;;;;27.49;33.80;101028.97;5075340;28;1909;-43
2022/05/16 00:23:31;;;;;;;;;;;;;;;27.46;33.80;101035.56;5075801;28;912;-44
2022/05/16 00:25:56;;;;;;;;;;;;;;;27.45;33.50;101033.91;5076285;28;1548;-43
2022/05/16 00:28:21;;;;;;;;;;;;;;;27.47;33.30;101033.72;5075687;28;909;-44
2022/05/16 00:30:48;;;;;;;;;;;;;;;27.44;33.32;101034.94;5075906;28;1039;-43
2022/05/16 00:33:13;;;;;;;;;;;;;;;27.43;33.51;101035.94;5075553;28;885;-43
2022/05/16 00:35:38;;;;;;;;;;;;;;;27.45;33.34;101022.25;5075604;28;818;-43
2022/05/16 00:38:04;;;;;;;;;;;;;;;27.45;33.12;101028.50;5075890;28;852;-43
2022/05/16 00:40:29;;;;;;;;;;;;;;;27.41;33.25;101023.63;5075910;28;1897;-43
2022/05/16 00:43:05;;;;;;;;;;;;;;;27.41;33.14;101024.44;5075952;28;838;-43
2022/05/16 00:45:30;;;;;;;;;;;;;;;27.40;33.36;101025.47;5075032;28;1060;-43
2022/05/16 00:47:55;;;;;;;;;;;;;;;27.41;32.94;101027.16;5075745;28;841;-43
2022/05/16 00:50:21;;;;;;;;;;;;;;;27.43;32.95;101021.56;5075686;28;802;-44
2022/05/16 00:52:46;;;;;;;;;;;;;;;27.41;32.87;101029.03;5075434;28;830;-43
2022/05/16 00:55:31;;;;;;;;;;;;;;;27.45;33.23;101033.91;5057225;28;1106;-43
2022/05/16 00:57:58;;;;;;;;;;;;;;;27.39;33.02;101023.81;5056667;28;908;-43
2022/05/16 01:00:23;;;;;;;;;;;;;;;27.38;33.43;101031.06;5056384;28;1902;-43
2022/05/16 01:05:51;;;;;;;;;;;;;;;27.38;32.99;101024.81;5079420;28;616;-44
2022/05/16 01:08:22;;;;;;;;;;;;;;;27.42;32.86;101026.16;5079408;28;800;-44
2022/05/16 01:10:47;;;;;;;;;;;;;;;27.41;33.25;101021.75;5078646;28;850;-44
2022/05/16 01:13:13;;;;;;;;;;;;;;;27.41;33.21;101024.44;5079596;28;834;-43
2022/05/16 01:15:47;;;;;;;;;;;;;;;27.36;33.18;101025.00;5079270;28;995;-43
2022/05/16 01:18:14;;;;;;;;;;;;;;;27.35;32.98;101026.03;5079340;28;786;-43
2022/05/16 01:20:46;;;;;;;;;;;;;;;27.35;33.25;101019.78;5079262;28;1966;-43
2022/05/16 01:23:12;;;;;;;;;;;;;;;27.38;33.39;101014.00;5079194;28;821;-43
2022/05/16 01:25:37;;;;;;;;;;;;;;;27.38;32.84;101020.25;5078856;28;1055;-43
2022/05/16 01:28:05;;;;;;;;;;;;;;;27.37;32.55;101012.34;5079048;28;825;-43
2022/05/16 01:30:39;;;;;;;;;;;;;;;27.34;32.92;101012.69;5078301;28;1038;-43
2022/05/16 01:33:05;;;;;;;;;;;;;;;27.36;33.09;101010.66;5079204;28;830;-43
2022/05/16 01:35:30;;;;;;;;;;;;;;;27.36;32.70;101014.19;5078910;28;826;-44
2022/05/16 01:40:39;;;;;;;;;;;;;;;27.36;33.20;101011.50;5077856;28;1905;-43
2022/05/16 01:43:05;;;;;;;;;;;;;;;27.37;32.70;101007.78;5078778;28;892;-42
2022/05/16 01:45:30;;;;;;;;;;;;;;;27.37;33.18;101005.09;5078790;28;982;-42
2022/05/16 01:47:55;;;;;;;;;;;;;;;27.34;33.15;101010.00;5078462;28;1536;-43
2022/05/16 01:50:21;;;;;;;;;;;;;;;27.34;33.27;101007.28;5078561;28;911;-43
2022/05/16 01:52:46;;;;;;;;;;;;;;;27.37;32.88;101006.94;5078559;28;757;-43
2022/05/16 01:55:11;;;;;;;;;;;;;;;27.35;32.92;101015.22;5078593;28;830;-43
2022/05/16 01:57:39;;;;;;;;;;;;;;;27.38;33.12;101009.47;5078758;28;866;-42
2022/05/16 02:00:05;;;;;;;;;;;;;;;27.34;32.83;101008.13;5078199;28;1902;-44
2022/05/16 02:02:30;;;;;;;;;;;;;;;27.22;33.31;101010.41;5071735;28;1067;-41
2022/05/16 02:04:55;;;;;;;;;;;;;;;27.06;33.29;101002.41;5078282;28;905;-40
2022/05/16 02:07:21;;;;;;;;;;;;;;;27.08;33.08;101011.13;5078089;28;822;-40
2022/05/16 02:09:46;;;;;;;;;;;;;;;27.17;33.42;101009.25;5078262;28;1167;-37
2022/05/16 02:12:12;;;;;;;;;;;;;;;27.17;32.90;101014.66;5078421;28;789;-37
2022/05/16 02:14:38;;;;;;;;;;;;;;;27.16;33.07;101016.50;5077902;28;893;-39
2022/05/16 02:17:03;;;;;;;;;;;;;;;27.18;33.12;101010.91;5077937;28;1021;-39
2022/05/16 02:19:28;;;;;;;;;;;;;;;27.20;33.32;101020.53;5078687;28;793;-37
2022/05/16 02:24:40;;;;;;;;;;;;;;;27.17;33.37;101020.91;5077949;28;650;-40
2022/05/16 02:27:09;;;;;;;;;;;;;;;27.18;33.10;101022.56;5077485;28;1145;-38
2022/05/16 02:29:34;;;;;;;;;;;;;;;27.20;33.13;101025.09;5077960;28;770;-40
2022/05/16 02:32:00;;;;;;;;;;;;;;;27.14;33.20;101024.78;5077982;28;994;-38
2022/05/16 02:34:25;;;;;;;;;;;;;;;27.16;33.16;101031.88;5077890;28;841;-36
2022/05/16 02:36:52;;;;;;;;;;;;;;;27.16;33.52;101029.19;5059413;28;800;-38
2022/05/16 02:39:17;;;;;;;;;;;;;;;27.17;33.34;101031.69;5078012;28;829;-40
2022/05/16 02:41:43;;;;;;;;;;;;;;;27.14;33.47;101030.19;5076048;28;1977;-40
2022/05/16 02:44:08;;;;;;;;;;;;;;;27.14;33.80;101034.75;5066832;28;1374;-39
2022/05/16 02:46:33;;;;;;;;;;;;;;;27.16;33.78;101037.28;5071593;28;857;-39
2022/05/16 02:48:58;;;;;;;;;;;;;;;27.12;33.48;101034.94;5066385;28;785;-38
2022/05/16 02:51:24;;;;;;;;;;;;;;;27.12;33.58;101026.84;5057375;28;806;-40
2022/05/16 02:53:50;;;;;;;;;;;;;;;27.10;33.35;101033.41;5069434;28;806;-38
2022/05/16 02:56:15;;;;;;;;;;;;;;;27.10;33.81;101030.72;5077716;28;774;-37
2022/05/16 02:58:40;;;;;;;;;;;;;;;27.14;33.58;101034.75;5076421;28;1258;-38
2022/05/16 03:01:06;;;;;;;;;;;;;;;26.47;34.86;101037.66;5077500;28;1902;-40
2022/05/16 03:03:32;;;;;;;;;;;;;;;25.75;36.75;101039.16;5077178;28;780;-38
2022/05/16 03:05:57;;;;;;;;;;;;;;;25.39;38.11;101032.97;5076611;28;853;-40
2022/05/16 03:08:23;;;;;;;;;;;;;;;25.21;38.45;101035.78;5077250;28;943;-37
2022/05/16 03:10:48;;;;;;;;;;;;;;;25.17;38.21;101035.28;5077528;28;808;-40
2022/05/16 03:13:14;;;;;;;;;;;;;;;25.04;38.72;101045.69;5076859;28;878;-38
2022/05/16 03:15:39;;;;;;;;;;;;;;;24.92;38.97;101043.25;5076963;28;1011;-39
2022/05/16 03:18:05;;;;;;;;;;;;;;;24.87;39.33;101045.56;5076330;28;896;-39
2022/05/16 03:20:30;;;;;;;;;;;;;;;24.81;39.41;101043.50;5076852;28;1948;-38
2022/05/16 03:22:56;;;;;;;;;;;;;;;24.66;40.00;101052.16;5076773;28;782;-39
2022/05/16 03:25:21;;;;;;;;;;;;;;;24.60;39.94;101052.81;5076578;28;1466;-39
2022/05/16 03:27:46;;;;;;;;;;;;;;;24.57;40.13;101048.56;5076288;28;1037;-39
2022/05/16 03:30:12;;;;;;;;;;;;;;;24.53;40.29;101049.06;5076179;28;1015;-37
2022/05/16 03:32:37;;;;;;;;;;;;;;;24.47;40.46;101047.84;5076228;28;934;-39
2022/05/16 03:35:03;;;;;;;;;;;;;;;24.51;40.27;101054.59;5076627;28;1151;-39
2022/05/16 03:37:28;;;;;;;;;;;;;;;24.44;40.61;101054.38;5076283;28;746;-40
2022/05/16 03:42:37;;;;;;;;;;;;;;;24.41;40.61;101061.91;5076437;28;671;-36
2022/05/16 03:45:04;;;;;;;;;;;;;;;24.37;40.64;101058.72;5075777;28;960;-39
2022/05/16 03:47:29;;;;;;;;;;;;;;;24.33;41.13;101057.31;5076726;28;802;-37
2022/05/16 03:49:55;;;;;;;;;;;;;;;24.25;41.40;101059.94;5076372;28;849;-38
2022/05/16 03:52:20;;;;;;;;;;;;;;;24.49;40.70;101066.53;5076353;28;889;-39
2022/05/16 03:54:45;;;;;;;;;;;;;;;24.90;41.36;101065.91;5076219;28;814;-41
2022/05/16 03:57:10;;;;;;;;;;;;;;;25.01;40.47;101065.66;5058463;28;849;-43
2022/05/16 03:59:36;;;;;;;;;;;;;;;24.98;39.96;101066.00;5066459;28;1286;-42
2022/05/16 04:02:01;;;;;;;;;;;;;;;24.98;39.65;101068.69;5074375;28;1906;-40
2022/05/16 04:04:27;;;;;;;;;;;;;;;25.07;39.69;101073.09;5075498;28;806;-39
2022/05/16 04:06:52;;;;;;;;;;;;;;;24.85;39.73;101077.16;5075098;28;1550;-41
2022/05/16 04:09:17;;;;;;;;;;;;;;;24.57;40.95;101077.34;5075790;28;857;-41
2022/05/16 04:11:43;;;;;;;;;;;;;;;24.56;40.22;101073.78;5076496;28;825;-42
2022/05/16 04:14:08;;;;;;;;;;;;;;;24.76;40.24;101070.03;5075578;28;834;-40
2022/05/16 04:16:33;;;;;;;;;;;;;;;24.56;38.66;101072.94;5076064;28;1578;-41
2022/05/16 04:18:59;;;;;;;;;;;;;;;24.15;39.42;101068.06;5076311;28;1422;-41
2022/05/16 04:21:24;;;;;;;;;;;;;;;24.36;40.09;101077.69;5075471;28;1973;-39
2022/05/16 04:23:50;;;;;;;;;;;;;;;24.72;39.14;101076.75;5075556;28;1015;-41
2022/05/16 04:26:15;;;;;;;;;;;;;;;25.03;38.85;101078.97;5075716;28;1067;-39
2022/05/16 04:28:40;;;;;;;;;;;;;;;25.15;39.05;101088.44;5075800;28;852;-40
2022/05/16 04:31:06;;;;;;;;;;;;;;;25.22;39.00;101085.09;5075640;28;1046;-41
2022/05/16 04:33:35;;;;;;;;;;;;;;;25.27;38.98;101093.53;5075768;28;841;-40
2022/05/16 04:36:00;;;;;;;;;;;;;;;25.25;38.88;101095.56;5070285;28;911;-39
2022/05/16 04:38:25;;;;;;;;;;;;;;;25.33;38.53;101097.41;5057439;28;831;-39
2022/05/16 04:43:35;;;;;;;;;;;;;;;25.33;38.09;101079.41;5059233;28;631;-40
2022/05/16 04:46:03;;;;;;;;;;;;;;;25.48;38.30;101086.88;5069753;28;982;-36
2022/05/16 04:48:29;;;;;;;;;;;;;;;25.52;37.52;101086.41;5079484;28;927;-41
2022/05/16 04:50:54;;;;;;;;;;;;;;;25.55;37.83;101093.31;5079734;28;819;-39
2022/05/16 04:53:19;;;;;;;;;;;;;;;25.67;37.84;101097.38;5079925;28;856;-39
2022/05/16 04:55:44;;;;;;;;;;;;;;;25.64;37.64;101094.22;5079602;28;781;-39
2022/05/16 04:58:10;;;;;;;;;;;;;;;25.76;37.74;101097.41;5079480;28;816;-40
2022/05/16 05:00:35;;;;;;;;;;;;;;;25.75;37.59;101091.19;5079056;28;1898;-41
2022/05/16 05:03:01;;;;;;;;;;;;;;;25.85;37.51;101098.28;5079541;28;774;-41
2022/05/16 05:05:26;;;;;;;;;;;;;;;25.87;37.18;101097.13;5059989;28;895;-40
2022/05/16 05:07:51;;;;;;;;;;;;;;;25.90;36.96;101104.00;5079285;28;1026;-40
2022/05/16 05:15:45;;;;;;;;;;;;;;;26.02;37.36;101107.25;5078827;28;1030;-41
2022/05/16 05:18:11;;;;;;;;;;;;;;;26.04;36.96;101108.75;5060932;28;849;-40
2022/05/16 05:20:37;;;;;;;;;;;;;;;26.03;37.54;101111.59;5079377;28;1901;-40
2022/05/16 05:23:02;;;;;;;;;;;;;;;26.06;37.28;101108.56;5079425;28;949;-39
2022/05/16 05:25:28;;;;;;;;;;;;;;;26.04;34.65;101106.03;5067400;28;1190;-38
2022/05/16 05:27:53;;;;;;;;;;;;;;;26.01;36.33;101106.38;5060958;28;957;-40
2022/05/16 05:30:22;;;;;;;;;;;;;;;26.17;36.26;101102.84;5078683;28;994;-40
2022/05/16 05:32:48;;;;;;;;;;;;;;;25.97;32.76;101104.19;5078701;28;869;-40
2022/05/16 05:35:13;;;;;;;;;;;;;;;26.01;34.59;101101.00;5060056;28;845;-40
2022/05/16 05:37:38;;;;;;;;;;;;;;;26.14;35.96;101096.97;5078743;28;805;-39
2022/05/16 05:40:04;;;;;;;;;;;;;;;26.16;36.17;101101.16;5078391;28;1971;-39
2022/05/16 05:42:30;;;;;;;;;;;;;;;26.16;36.59;101095.78;5078842;28;819;-40
2022/05/16 05:44:55;;;;;;;;;;;;;;;26.12;36.95;101098.97;5078771;28;845;-41
2022/05/16 05:47:20;;;;;;;;;;;;;;;26.12;36.72;101098.97;5078498;28;905;-40
2022/05/16 05:49:46;;;;;;;;;;;;;;;26.17;36.89;101099.31;5078056;28;791;-41
2022/05/16 05:52:11;;;;;;;;;;;;;;;26.17;37.35;101110.94;5078174;28;865;-38
2022/05/16 05:54:36;;;;;;;;;;;;;;;26.21;37.21;101103.34;5078515;28;810;-41
2022/05/16 05:57:02;;;;;;;;;;;;;;;26.26;37.02;101098.31;5078355;28;829;-38
2022/05/16 05:59:28;;;;;;;;;;;;;;;26.28;37.42;101107.06;5078352;28;853;-41
2022/05/16 06:01:53;;;;;;;;;;;;;;;26.31;37.32;101100.50;5078280;28;1889;-36
2022/05/16 06:04:18;;;;;;;;;;;;;;;26.33;37.13;101087.72;5078284;28;842;-41
2022/05/16 06:06:46;;;;;;;;;;;;;;;26.35;37.55;101099.19;5078340;28;908;-40
2022/05/16 06:09:11;;;;;;;;;;;;;;;26.38;37.65;101098.00;5078288;28;782;-40
2022/05/16 06:11:37;;;;;;;;;;;;;;;26.47;37.93;101105.09;5078246;28;792;-40
2022/05/16 06:14:02;;;;;;;;;;;;;;;26.59;37.84;101105.56;5078153;28;893;-41
2022/05/16 06:16:27;;;;;;;;;;;;;;;26.68;38.14;101103.69;5077185;28;998;-39
2022/05/16 06:18:53;;;;;;;;;;;;;;;26.61;38.16;101111.63;5061041;28;1255;-41
2022/05/16 06:21:18;;;;;;;;;;;;;;;26.56;38.87;101108.59;5058138;28;1964;-37
2022/05/16 06:23:43;;;;;;;;;;;;;;;26.48;38.37;101105.91;5039885;28;810;-40
2022/05/16 06:26:09;;;;;;;;;;;;;;;26.43;38.95;101100.16;5064551;28;1195;-40
2022/05/16 06:28:37;;;;;;;;;;;;;;;26.55;38.81;101100.66;5061726;28;1306;-40
2022/05/16 06:31:02;;;;;;;;;;;;;;;26.57;39.10;101099.50;5076768;28;1456;-40
2022/05/16 06:33:30;;;;;;;;;;;;;;;26.68;38.52;101102.84;5076278;28;1198;-38
2022/05/16 06:35:56;;;;;;;;;;;;;;;26.62;39.00;101099.84;5070639;28;1200;-40
2022/05/16 06:38:23;;;;;;;;;;;;;;;26.56;38.71;101110.47;5077414;28;1239;-42
2022/05/16 06:40:48;;;;;;;;;;;;;;;26.53;38.98;101111.63;5077636;28;1906;-40
2022/05/16 06:43:14;;;;;;;;;;;;;;;26.52;39.14;101102.72;5077682;28;848;-39
2022/05/16 06:45:39;;;;;;;;;;;;;;;26.62;39.01;101112.47;5077637;28;1014;-40
2022/05/16 06:48:04;;;;;;;;;;;;;;;26.56;39.14;101108.59;5074724;28;1092;-40
2022/05/16 06:50:30;;;;;;;;;;;;;;;26.62;38.94;101107.09;5062498;28;1199;-40
2022/05/16 06:52:55;;;;;;;;;;;;;;;26.64;39.34;101111.28;5057231;28;775;-39
2022/05/16 06:55:21;;;;;;;;;;;;;;;26.73;39.12;101113.97;5067063;28;906;-37
2022/05/16 06:57:46;;;;;;;;;;;;;;;26.77;39.09;101108.06;5077242;28;745;-40
2022/05/16 07:00:12;;;;;;;;;;;;;;;26.87;38.51;101110.59;5076717;28;1902;-38
2022/05/16 07:02:37;;;;;;;;;;;;;;;26.89;37.83;101110.41;5076905;28;805;-37
2022/05/16 07:05:03;;;;;;;;;;;;;;;26.99;37.88;101110.22;5077420;28;936;-40
2022/05/16 07:07:28;;;;;;;;;;;;;;;27.08;37.95;101113.75;5077154;28;848;-38
2022/05/16 07:09:54;;;;;;;;;;;;;;;27.05;37.96;101109.53;5076794;28;865;-40
2022/05/16 07:12:19;;;;;;;;;;;;;;;27.10;38.61;101111.72;5077774;28;782;-38
2022/05/16 07:14:45;;;;;;;;;;;;;;;27.08;38.69;101114.59;5076756;28;822;-36
2022/05/16 07:17:10;;;;;;;;;;;;;;;27.18;38.26;101110.84;5076587;28;891;-36
2022/05/16 07:19:36;;;;;;;;;;;;;;;27.15;38.45;101112.03;5076857;28;1061;-38
2022/05/16 07:22:11;;;;;;;;;;;;;;;27.19;38.96;101110.69;5076069;28;1961;-34
2022/05/16 07:24:36;;;;;;;;;;;;;;;27.21;38.82;101114.03;5066553;28;1278;-37
2022/05/16 07:29:45;;;;;;;;;;;;;;;27.39;37.95;101110.25;5056592;28;623;-39
2022/05/16 07:32:11;;;;;;;;;;;;;;;27.50;38.21;101114.41;5075462;28;982;-43
2022/05/16 07:34:36;;;;;;;;;;;;;;;27.53;38.04;101107.84;5064158;28;949;-39
2022/05/16 07:37:01;;;;;;;;;;;;;;;27.54;38.00;101110.34;5056657;28;750;-39
2022/05/16 07:39:27;;;;;;;;;;;;;;;27.63;37.49;101117.38;5037887;28;849;-41
2022/05/16 07:41:54;;;;;;;;;;;;;;;27.70;37.70;101108.59;5056173;28;1909;-41
2022/05/16 07:44:19;;;;;;;;;;;;;;;27.72;37.56;101104.72;5058996;28;1266;-35
2022/05/16 07:46:44;;;;;;;;;;;;;;;27.67;37.75;101106.22;5073511;28;1175;-38
2022/05/16 07:49:10;;;;;;;;;;;;;;;27.76;37.93;101105.16;5076597;28;742;-38
2022/05/16 07:51:36;;;;;;;;;;;;;;;27.71;38.07;101108.41;5076240;28;863;-40
2022/05/16 07:54:01;;;;;;;;;;;;;;;27.78;37.71;101107.72;5073143;28;1278;-40
2022/05/16 07:56:26;;;;;;;;;;;;;;;27.80;37.58;101108.34;5068042;28;1082;-41
2022/05/16 07:58:51;;;;;;;;;;;;;;;27.71;37.91;101105.72;5065044;28;905;-40
2022/05/16 08:01:17;;;;;;;;;;;;;;;27.75;37.57;101107.06;5075706;28;1906;-41
2022/05/16 08:03:42;;;;;;;;;;;;;;;27.77;38.03;101104.16;5066995;28;1333;-39
2022/05/16 08:06:07;;;;;;;;;;;;;;;27.90;37.49;101105.41;5067632;28;1242;-42
2022/05/16 08:11:17;;;;;;;;;;;;;;;27.91;37.37;101105.25;5075633;28;864;-40
2022/05/16 08:13:42;;;;;;;;;;;;;;;27.90;37.30;101108.13;5076068;28;867;-39
2022/05/16 08:16:07;;;;;;;;;;;;;;;27.89;37.36;101110.00;5076055;28;898;-40
2022/05/16 08:18:32;;;;;;;;;;;;;;;27.89;37.70;101110.00;5075922;28;777;-40
2022/05/16 08:20:59;;;;;;;;;;;;;;;27.91;37.60;101109.81;5076146;28;1894;-41
2022/05/16 08:23:26;;;;;;;;;;;;;;;27.90;37.54;101110.81;5075844;28;857;-40
2022/05/16 08:25:52;;;;;;;;;;;;;;;27.92;37.90;101106.09;5075599;28;1072;-39
2022/05/16 08:28:17;;;;;;;;;;;;;;;27.94;37.60;101112.16;5076045;28;873;-38
2022/05/16 08:30:43;;;;;;;;;;;;;;;27.92;37.79;101106.09;5075770;28;911;-39
2022/05/16 08:33:08;;;;;;;;;;;;;;;27.90;38.16;101108.13;5075506;28;944;-40
2022/05/16 08:35:33;;;;;;;;;;;;;;;27.93;38.14;101103.19;5076686;28;761;-39
2022/05/16 08:40:53;;;;;;;;;;;;;;;27.92;37.60;101117.75;5075673;28;1914;-37
2022/05/16 08:43:18;;;;;;;;;;;;;;;27.90;38.07;101113.53;5076676;28;830;-39
2022/05/16 08:45:50;;;;;;;;;;;;;;;27.92;38.00;101100.69;5075173;28;1042;-40
2022/05/16 08:48:23;;;;;;;;;;;;;;;27.93;38.02;101105.06;5075129;28;1243;-39
2022/05/16 08:50:49;;;;;;;;;;;;;;;27.95;38.13;101111.13;5076037;28;833;-40
2022/05/16 08:53:33;;;;;;;;;;;;;;;27.96;37.93;101110.13;5075485;28;888;-39
2022/05/16 08:56:03;;;;;;;;;;;;;;;28.00;38.00;101116.84;5075641;28;817;-40
2022/05/16 08:58:29;;;;;;;;;;;;;;;28.02;37.72;101104.00;5040256;28;1315;-40
2022/05/16 09:00:55;;;;;;;;;;;;;;;27.98;37.86;101103.50;5074040;28;1899;-41
2022/05/16 09:03:31;;;;;;;;;;;;;;;27.99;37.95;101099.78;5057679;28;1101;-40
2022/05/16 09:05:57;;;;;;;;;;;;;;;28.01;37.64;101104.19;5058270;28;1075;-39
2022/05/16 09:08:49;;;;;;;;;;;;;;;28.02;37.74;101095.88;5057260;28;967;-39
2022/05/16 09:11:18;;;;;;;;;;;;;;;27.99;37.38;101093.53;5071238;28;1659;-39
2022/05/16 09:13:47;;;;;;;;;;;;;;;28.05;37.20;101086.56;5074793;28;1250;-41
2022/05/16 09:16:31;;;;;;;;;;;;;;;28.05;37.27;101083.84;5056848;28;896;-40
2022/05/16 09:19:00;;;;;;;;;;;;;;;28.04;37.48;101090.28;5075480;28;766;-40
2022/05/16 09:21:31;;;;;;;;;;;;;;;28.09;37.10;101087.88;5057555;28;1955;-40
2022/05/16 09:23:58;;;;;;;;;;;;;;;28.07;37.11;101087.22;5074992;28;1266;-40
2022/05/16 09:26:33;;;;;;;;;;;;;;;28.05;37.30;101081.16;5079052;28;1302;-41
2022/05/16 09:28:59;;;;;;;;;;;;;;;28.06;36.82;101080.97;5078005;28;938;-40
2022/05/16 09:31:26;;;;;;;;;;;;;;;28.14;37.18;101090.03;5078496;28;1286;-40
2022/05/16 09:33:53;;;;;;;;;;;;;;;28.19;36.94;101079.53;5060368;28;1573;-40
2022/05/16 09:36:20;;;;;;;;;;;;;;;28.16;36.54;101082.59;5076766;28;1314;-38
2022/05/16 09:38:45;;;;;;;;;;;;;;;28.20;36.72;101078.47;5078785;28;1199;-41
2022/05/16 09:41:11;;;;;;;;;;;;;;;28.21;36.52;101075.59;5076824;28;1914;-39
2022/05/16 09:43:43;;;;;;;;;;;;;;;28.30;36.74;101070.09;5077580;28;817;-41
2022/05/16 09:46:17;;;;;;;;;;;;;;;28.36;36.93;101070.25;5077225;28;846;-41
2022/05/16 09:48:43;;;;;;;;;;;;;;;28.45;38.69;101065.59;5060289;28;1023;-41
2022/05/16 09:51:09;;;;;;;;;;;;;;;28.53;39.16;101061.97;5077875;28;842;-39
2022/05/16 09:53:38;;;;;;;;;;;;;;;28.44;39.95;101066.66;5078348;28;884;-43
2022/05/16 09:56:05;;;;;;;;;;;;;;;28.38;39.95;101059.25;5078461;28;833;-41
2022/05/16 09:58:49;;;;;;;;;;;;;;;28.40;39.18;101054.50;5079169;28;739;-43
2022/05/16 10:01:27;;;;;;;;;;;;;;;28.54;38.53;101054.69;5078416;28;1898;-39
2022/05/16 10:03:53;;;;;;;;;;;;;;;28.62;38.85;101045.66;5078692;28;892;-40
2022/05/16 10:06:35;;;;;;;;;;;;;;;28.58;39.18;101048.72;5059335;28;854;-38
2022/05/16 10:09:04;;;;;;;;;;;;;;;28.48;39.31;101046.28;5077983;28;914;-40
2022/05/16 10:11:29;;;;;;;;;;;;;;;28.42;39.18;101044.34;5078189;28;842;-40
2022/05/16 10:13:55;;;;;;;;;;;;;;;28.44;38.57;101045.00;5059879;28;837;-40
2022/05/16 10:16:20;;;;;;;;;;;;;;;28.53;37.83;101048.44;5078290;28;840;-40
2022/05/16 10:18:48;;;;;;;;;;;;;;;28.50;37.85;101043.41;5078243;28;911;-41
2022/05/16 10:21:32;;;;;;;;;;;;;;;28.50;37.32;101034.44;5078061;28;1964;-35
2022/05/16 10:23:59;;;;;;;;;;;;;;;28.43;37.11;101040.59;5059811;28;843;-38
2022/05/16 10:26:25;;;;;;;;;;;;;;;28.42;36.86;101043.47;5060112;28;1079;-36
2022/05/16 10:28:57;;;;;;;;;;;;;;;28.34;37.25;101044.41;5059669;28;947;-35
2022/05/16 10:34:17;;;;;;;;;;;;;;;28.54;36.85;101033.06;5074741;28;1029;-40
2022/05/16 10:36:44;;;;;;;;;;;;;;;28.54;37.08;101030.34;5074324;28;1093;-40
2022/05/16 10:39:15;;;;;;;;;;;;;;;28.55;36.69;101030.16;5073345;28;1243;-39
2022/05/16 10:42:04;;;;;;;;;;;;;;;28.58;36.91;101035.19;5060244;28;1917;-43
2022/05/16 10:44:33;;;;;;;;;;;;;;;28.56;36.71;101022.88;5067417;28;2153;-40
2022/05/16 10:47:00;;;;;;;;;;;;;;;28.56;36.75;101022.88;5077731;28;990;-42
2022/05/16 10:49:25;;;;;;;;;;;;;;;28.55;36.64;101008.50;5058364;28;1054;-41
2022/05/16 10:51:54;;;;;;;;;;;;;;;28.67;36.46;101006.19;5077832;28;805;-41
2022/05/16 10:54:23;;;;;;;;;;;;;;;28.72;36.39;101008.31;5077308;28;846;-41
2022/05/16 10:56:53;;;;;;;;;;;;;;;28.69;36.12;100996.00;5077026;28;921;-42
2022/05/16 10:59:33;;;;;;;;;;;;;;;28.66;36.27;101000.94;5049374;28;1259;-41
2022/05/16 11:02:02;;;;;;;;;;;;;;;28.68;36.26;100991.59;5074837;28;1953;-41
2022/05/16 11:04:39;;;;;;;;;;;;;;;28.69;36.21;100987.03;5077249;28;825;-40
2022/05/16 11:07:08;;;;;;;;;;;;;;;28.71;35.87;100988.50;5071984;28;1402;-40
2022/05/16 11:09:37;;;;;;;;;;;;;;;28.64;36.27;100987.59;5063729;28;861;-40
2022/05/16 11:12:08;;;;;;;;;;;;;;;28.65;36.31;100996.53;5041628;28;1156;-39
2022/05/16 11:14:48;;;;;;;;;;;;;;;28.69;36.16;100989.75;5062584;28;1045;-40
2022/05/16 11:17:16;;;;;;;;;;;;;;;28.69;35.70;100984.34;5075683;28;923;-40
2022/05/16 11:19:50;;;;;;;;;;;;;;;28.75;35.82;100978.16;5076881;28;898;-41
2022/05/16 11:22:18;;;;;;;;;;;;;;;28.76;35.31;100982.53;5076993;28;1893;-38
2022/05/16 11:24:47;;;;;;;;;;;;;;;28.68;35.50;100978.06;5076046;28;1242;-40
2022/05/16 11:27:13;;;;;;;;;;;;;;;28.58;35.24;100969.38;5059004;28;1239;-42
2022/05/16 11:29:39;;;;;;;;;;;;;;;28.72;35.56;100973.97;5076770;28;814;-40
2022/05/16 11:32:25;;;;;;;;;;;;;;;28.66;35.46;100974.69;5074484;28;1061;-40
2022/05/16 11:34:55;;;;;;;;;;;;;;;28.65;35.06;100983.00;5044344;28;1303;-38
2022/05/16 11:37:33;;;;;;;;;;;;;;;28.64;35.28;100979.47;5056873;28;893;-42
2022/05/16 11:40:20;;;;;;;;;;;;;;;28.62;34.91;100976.13;5039172;28;866;-42
2022/05/16 11:43:11;;;;;;;;;;;;;;;28.60;35.26;100987.13;5039077;28;880;-41
2022/05/16 11:45:39;;;;;;;;;;;;;;;28.57;35.60;100992.09;5059792;28;1275;-41
2022/05/16 11:48:24;;;;;;;;;;;;;;;28.27;31.53;100998.28;5076123;28;837;-44
2022/05/16 11:51:03;;;;;;;;;;;;;;;28.21;34.18;101004.44;5076307;28;874;-43
2022/05/16 11:53:57;;;;;;;;;;;;;;;28.23;35.29;101008.63;5051686;28;1213;-42
2022/05/16 12:02:09;;;;;;;;;;;;;;;28.21;35.56;101010.69;5075235;28;1878;-40
2022/05/16 12:04:45;;;;;;;;;;;;;;;28.26;35.99;101006.59;5076331;28;813;-43
2022/05/16 12:07:17;;;;;;;;;;;;;;;28.21;35.82;101005.25;5069909;28;804;-42
2022/05/16 12:09:50;;;;;;;;;;;;;;;28.19;36.15;101020.88;5076585;28;943;-43
2022/05/16 12:12:27;;;;;;;;;;;;;;;28.23;35.42;101022.16;5076494;28;799;-43
2022/05/16 12:15:11;;;;;;;;;;;;;;;28.27;34.53;101008.25;5072340;28;885;-44
2022/05/16 12:17:36;;;;;;;;;;;;;;;28.04;33.72;100990.22;5074253;28;738;-42
2022/05/16 12:20:04;;;;;;;;;;;;;;;27.67;27.10;100990.00;5076151;28;1210;-38
2022/05/16 12:22:33;;;;;;;;;;;;;;;27.75;28.42;100998.06;5076110;28;1890;-40
2022/05/16 12:25:05;;;;;;;;;;;;;;;27.92;30.37;100992.53;5070488;28;1084;-40
2022/05/16 12:27:34;;;;;;;;;;;;;;;27.74;28.74;100999.13;5075926;28;1296;-39
2022/05/16 12:30:01;;;;;;;;;;;;;;;27.45;26.33;101000.63;5076438;28;832;-40
2022/05/16 12:32:27;;;;;;;;;;;;;;;27.36;26.02;101016.88;5075250;28;1155;-38
2022/05/16 12:34:52;;;;;;;;;;;;;;;27.31;27.19;101023.88;5075558;28;1136;-41
2022/05/16 12:37:18;;;;;;;;;;;;;;;27.43;31.87;101019.72;5072552;28;1482;-41
2022/05/16 12:39:55;;;;;;;;;;;;;;;27.02;34.63;101010.84;5072256;28;1243;-40
2022/05/16 12:42:39;;;;;;;;;;;;;;;26.56;35.52;101011.47;5071412;28;1902;-41
2022/05/16 12:45:22;;;;;;;;;;;;;;;26.75;35.58;101010.25;5074138;28;1060;-44
2022/05/16 12:47:47;;;;;;;;;;;;;;;26.47;36.81;101010.66;5072827;28;790;-40
2022/05/16 12:50:20;;;;;;;;;;;;;;;25.28;40.02;101009.91;5075762;28;805;-42
2022/05/16 12:52:58;;;;;;;;;;;;;;;26.76;35.26;101014.63;5057749;28;897;-42
2022/05/16 12:55:42;;;;;;;;;;;;;;;27.03;30.99;101008.97;5076091;28;777;-44
2022/05/16 12:58:07;;;;;;;;;;;;;;;27.29;31.45;101005.13;5069429;28;873;-41
2022/05/16 13:00:32;;;;;;;;;;;;;;;27.42;32.75;101001.84;5078878;28;1906;-41
2022/05/16 13:03:18;;;;;;;;;;;;;;;27.27;29.30;100993.66;5079695;28;787;-42
2022/05/16 13:05:47;;;;;;;;;;;;;;;27.38;31.05;100976.19;5074554;28;850;-41
2022/05/16 13:08:12;;;;;;;;;;;;;;;27.63;32.45;100974.16;5079810;28;749;-41
2022/05/16 13:10:47;;;;;;;;;;;;;;;27.52;31.13;100985.38;5076078;28;1362;-41
2022/05/16 13:13:30;;;;;;;;;;;;;;;27.57;32.04;100988.41;5079098;28;856;-41
2022/05/16 13:16:15;;;;;;;;;;;;;;;27.64;33.41;100991.22;5055447;28;1037;-40
2022/05/16 13:18:45;;;;;;;;;;;;;;;27.59;34.79;100988.22;5058836;28;959;-41
2022/05/16 13:21:12;;;;;;;;;;;;;;;27.64;34.94;100993.91;5061804;28;1977;-40
2022/05/16 13:23:37;;;;;;;;;;;;;;;27.62;35.10;100991.41;5079262;28;1405;-42
2022/05/16 13:31:37;;;;;;;;;;;;;;;27.87;35.89;100982.28;5074736;28;889;-42
2022/05/16 13:34:02;;;;;;;;;;;;;;;27.62;31.91;100975.19;5061903;28;758;-42
2022/05/16 13:36:28;;;;;;;;;;;;;;;27.74;34.00;100977.50;5061590;28;815;-44
2022/05/16 13:39:00;;;;;;;;;;;;;;;27.84;34.69;100979.94;5078822;28;1084;-43